createdAt,value
2018-12-22T00:01:41.892Z,28.05
2018-12-22T00:04:08.280Z,27.97
2018-12-22T00:06:34.735Z,28.13
2018-12-22T00:09:01.265Z,28.08
2018-12-22T00:11:27.678Z,28.07
2018-12-22T00:13:54.018Z,28.14
2018-12-22T00:16:20.348Z,28.16
2018-12-22T00:18:46.687Z,28.07
2018-12-22T00:21:13.056Z,28.14
2018-12-22T00:23:39.445Z,28.38
2018-12-22T00:26:05.818Z,28.11
2018-12-22T00:28:32.123Z,28.17
2018-12-22T00:30:58.464Z,28.06
2018-12-22T00:33:24.819Z,28.16
2018-12-22T00:35:51.282Z,28.15
2018-12-22T00:38:17.719Z,28.15
2018-12-22T00:40:44.068Z,28.20
2018-12-22T00:43:10.403Z,28.08
2018-12-22T00:45:36.834Z,28.17
2018-12-22T00:48:03.168Z,28.23
2018-12-22T00:50:29.543Z,28.06
2018-12-22T00:52:56.019Z,28.27
2018-12-22T00:55:22.391Z,28.27
2018-12-22T00:57:48.708Z,28.24
2018-12-22T01:00:15.038Z,28.17
2018-12-22T01:02:41.547Z,28.32
2018-12-22T01:05:07.883Z,28.38
2018-12-22T01:07:34.275Z,28.26
2018-12-22T01:10:00.610Z,28.31
2018-12-22T01:12:26.930Z,28.29
2018-12-22T01:14:53.335Z,28.46
2018-12-22T01:17:19.645Z,28.29
2018-12-22T01:19:46.011Z,28.25
2018-12-22T01:22:12.306Z,28.25
2018-12-22T01:24:38.707Z,28.25
2018-12-22T01:27:05.162Z,28.21
2018-12-22T01:29:31.565Z,28.25
2018-12-22T01:31:57.894Z,28.27
2018-12-22T01:34:24.295Z,28.38
2018-12-22T01:36:50.691Z,28.35
2018-12-22T01:39:17.029Z,28.28
2018-12-22T01:41:43.384Z,28.42
2018-12-22T01:44:09.765Z,28.35
2018-12-22T01:46:36.175Z,28.53
2018-12-22T01:49:02.512Z,28.57
2018-12-22T01:51:28.961Z,28.53
2018-12-22T01:53:55.351Z,28.53
2018-12-22T01:56:21.724Z,28.74
2018-12-22T01:58:48.184Z,28.61
2018-12-22T02:01:14.414Z,28.62
2018-12-22T02:03:40.741Z,28.74
2018-12-22T02:06:07.134Z,28.64
2018-12-22T02:08:33.465Z,28.64
2018-12-22T02:10:59.814Z,28.64
2018-12-22T02:13:26.157Z,28.75
2018-12-22T02:15:52.596Z,28.66
2018-12-22T02:18:18.956Z,28.62
2018-12-22T02:20:45.321Z,28.73
2018-12-22T02:23:11.702Z,28.72
2018-12-22T02:25:38.031Z,28.67
2018-12-22T02:28:04.387Z,28.79
2018-12-22T02:30:30.718Z,28.59
2018-12-22T02:32:57.094Z,28.65
2018-12-22T02:35:23.445Z,28.57
2018-12-22T02:37:49.833Z,28.66
2018-12-22T02:40:16.176Z,28.72
2018-12-22T02:42:42.522Z,28.78
2018-12-22T02:45:08.868Z,28.78
2018-12-22T02:47:35.259Z,28.72
2018-12-22T02:50:01.588Z,28.68
2018-12-22T02:52:28.006Z,28.86
2018-12-22T02:54:54.352Z,28.96
2018-12-22T02:57:22.628Z,28.80
2018-12-22T02:59:47.101Z,28.78
2018-12-22T03:02:13.459Z,28.80
2018-12-22T03:04:39.846Z,28.87
2018-12-22T03:07:06.183Z,28.84
2018-12-22T03:09:32.630Z,28.92
2018-12-22T03:11:58.967Z,28.89
2018-12-22T03:14:25.352Z,28.94
2018-12-22T03:16:51.732Z,28.98
2018-12-22T03:19:18.125Z,28.90
2018-12-22T03:21:44.457Z,28.97
2018-12-22T03:24:10.795Z,29.00
2018-12-22T03:26:37.211Z,28.92
2018-12-22T03:29:03.559Z,29.03
2018-12-22T03:31:29.975Z,29.03
2018-12-22T03:33:56.266Z,28.98
2018-12-22T03:36:22.606Z,29.07
2018-12-22T03:38:48.941Z,29.12
2018-12-22T03:41:15.270Z,28.98
2018-12-22T03:43:41.661Z,29.13
2018-12-22T03:46:08.017Z,29.10
2018-12-22T03:48:34.484Z,29.12
2018-12-22T03:51:00.777Z,29.17
2018-12-22T03:53:27.246Z,29.06
2018-12-22T03:55:53.545Z,29.12
2018-12-22T03:58:19.967Z,29.27
2018-12-22T04:00:46.332Z,29.37
2018-12-22T04:03:12.652Z,29.26
2018-12-22T04:05:38.984Z,29.24
2018-12-22T04:08:05.341Z,29.23
2018-12-22T04:10:31.713Z,29.21
2018-12-22T04:12:58.072Z,29.25
2018-12-22T04:15:24.417Z,29.29
2018-12-22T04:17:50.745Z,29.29
2018-12-22T04:20:17.092Z,29.42
2018-12-22T04:22:43.486Z,29.46
2018-12-22T04:25:09.836Z,29.44
2018-12-22T04:27:36.167Z,29.30
2018-12-22T04:30:02.543Z,29.25
2018-12-22T04:32:28.898Z,29.32
2018-12-22T04:34:55.439Z,29.34
2018-12-22T04:37:21.688Z,29.42
2018-12-22T04:39:48.071Z,29.35
2018-12-22T04:42:14.405Z,29.28
2018-12-22T04:44:40.744Z,29.33
2018-12-22T04:47:07.068Z,29.27
2018-12-22T04:49:33.399Z,29.40
2018-12-22T04:51:59.797Z,29.27
2018-12-22T04:54:26.149Z,29.25
2018-12-22T04:56:52.485Z,29.39
2018-12-22T04:59:18.836Z,29.48
2018-12-22T05:01:45.167Z,29.28
2018-12-22T05:04:11.497Z,29.30
2018-12-22T05:06:37.869Z,29.41
2018-12-22T05:09:04.198Z,29.36
2018-12-22T05:11:30.591Z,29.23
2018-12-22T05:13:57.042Z,29.25
2018-12-22T05:16:23.434Z,29.27
2018-12-22T05:18:49.781Z,29.24
2018-12-22T05:21:16.103Z,29.12
2018-12-22T05:23:42.436Z,29.40
2018-12-22T05:26:08.763Z,29.31
2018-12-22T05:28:35.166Z,29.41
2018-12-22T05:31:01.584Z,29.27
2018-12-22T05:33:27.928Z,29.25
2018-12-22T05:35:54.271Z,29.23
2018-12-22T05:38:20.676Z,29.20
2018-12-22T05:40:47.013Z,29.41
2018-12-22T05:43:13.404Z,29.27
2018-12-22T05:45:39.757Z,29.34
2018-12-22T05:48:06.167Z,29.10
2018-12-22T05:50:32.543Z,29.16
2018-12-22T05:52:58.871Z,29.35
2018-12-22T05:55:25.248Z,29.19
2018-12-22T05:57:51.549Z,29.18
2018-12-22T06:00:17.948Z,29.23
2018-12-22T06:02:44.275Z,29.25
2018-12-22T06:05:10.657Z,29.20
2018-12-22T06:07:36.987Z,29.19
2018-12-22T06:10:03.391Z,29.37
2018-12-22T06:12:29.740Z,29.07
2018-12-22T06:14:56.240Z,29.18
2018-12-22T06:17:22.587Z,29.02
2018-12-22T06:19:48.985Z,29.12
2018-12-22T06:22:15.322Z,29.05
2018-12-22T06:24:41.650Z,29.16
2018-12-22T06:27:08.029Z,29.03
2018-12-22T06:29:34.378Z,29.02
2018-12-22T06:32:00.755Z,28.98
2018-12-22T06:34:27.184Z,28.68
2018-12-22T06:36:53.530Z,28.80
2018-12-22T06:39:19.874Z,28.86
2018-12-22T06:41:46.383Z,28.67
2018-12-22T06:44:12.727Z,28.45
2018-12-22T06:46:39.060Z,28.40
2018-12-22T06:49:05.454Z,28.34
2018-12-22T06:51:31.765Z,28.23
2018-12-22T06:53:58.079Z,28.38
2018-12-22T06:56:24.439Z,28.32
2018-12-22T06:58:50.858Z,28.28
2018-12-22T07:01:17.145Z,28.14
2018-12-22T07:03:43.534Z,27.91
2018-12-22T07:06:09.925Z,27.80
2018-12-22T07:08:36.254Z,27.87
2018-12-22T07:11:02.568Z,27.87
2018-12-22T07:13:28.918Z,27.98
2018-12-22T07:15:55.263Z,28.04
2018-12-22T07:18:21.638Z,28.05
2018-12-22T07:20:47.969Z,27.83
2018-12-22T07:23:14.351Z,27.83
2018-12-22T07:25:40.699Z,27.69
2018-12-22T07:28:07.041Z,27.93
2018-12-22T07:30:33.475Z,27.72
2018-12-22T07:32:59.829Z,28.14
2018-12-22T07:35:26.151Z,27.65
2018-12-22T07:37:52.493Z,28.52
2018-12-22T07:40:18.820Z,27.70
2018-12-22T07:42:45.271Z,28.07
2018-12-22T07:45:11.655Z,27.90
2018-12-22T07:47:38.018Z,28.03
2018-12-22T07:50:04.463Z,27.83
2018-12-22T07:52:30.836Z,27.65
2018-12-22T07:54:57.141Z,27.61
2018-12-22T07:57:23.518Z,27.72
2018-12-22T07:59:49.983Z,28.01
2018-12-22T08:02:16.360Z,28.25
2018-12-22T08:04:42.722Z,28.16
2018-12-22T08:07:09.111Z,27.88
2018-12-22T08:09:35.459Z,28.01
2018-12-22T08:12:01.788Z,28.07
2018-12-22T08:14:28.198Z,28.24
2018-12-22T08:16:54.507Z,28.20
2018-12-22T08:19:20.849Z,28.40
2018-12-22T08:21:47.188Z,28.77
2018-12-22T08:24:13.613Z,28.93
2018-12-22T08:26:39.955Z,28.53
2018-12-22T08:29:06.306Z,28.48
2018-12-22T08:31:32.641Z,29.25
2018-12-22T08:33:58.991Z,28.56
2018-12-22T08:36:25.337Z,28.83
2018-12-22T08:38:51.723Z,28.94
2018-12-22T08:41:18.042Z,28.95
2018-12-22T08:43:45.580Z,28.95
2018-12-22T08:46:12.108Z,28.92
2018-12-22T08:48:38.535Z,28.99
2018-12-22T08:51:04.821Z,28.98
2018-12-22T08:53:31.155Z,29.14
2018-12-22T08:55:57.504Z,29.73
2018-12-22T08:58:23.937Z,29.92
2018-12-22T09:00:52.333Z,30.09
2018-12-22T09:03:16.746Z,30.26
2018-12-22T09:05:43.078Z,30.33
2018-12-22T09:08:09.471Z,30.33
2018-12-22T09:10:35.816Z,30.19
2018-12-22T09:13:02.202Z,30.00
2018-12-22T09:15:28.579Z,30.14
2018-12-22T09:17:54.915Z,30.24
2018-12-22T09:20:21.294Z,29.90
2018-12-22T09:22:47.626Z,30.11
2018-12-22T09:25:13.955Z,30.08
2018-12-22T09:27:40.357Z,30.21
2018-12-22T09:30:06.722Z,30.24
2018-12-22T09:32:33.051Z,30.38
2018-12-22T09:34:59.457Z,30.35
2018-12-22T09:37:25.880Z,30.37
2018-12-22T09:39:52.144Z,30.32
2018-12-22T09:42:18.487Z,30.22
2018-12-22T09:44:44.869Z,30.32
2018-12-22T09:47:11.204Z,30.28
2018-12-22T09:49:37.595Z,30.25
2018-12-22T09:52:03.926Z,30.41
2018-12-22T09:54:30.336Z,30.21
2018-12-22T09:56:56.666Z,30.18
2018-12-22T09:59:23.005Z,30.28
2018-12-22T10:01:49.393Z,30.19
2018-12-22T10:04:15.725Z,30.18
2018-12-22T10:06:42.091Z,30.15
2018-12-22T10:09:08.431Z,30.11
2018-12-22T10:11:34.773Z,30.09
2018-12-22T10:14:01.249Z,29.94
2018-12-22T10:16:27.618Z,30.15
2018-12-22T10:18:53.947Z,30.27
2018-12-22T10:21:20.330Z,30.27
2018-12-22T10:23:46.675Z,30.29
2018-12-22T10:26:13.022Z,30.17
2018-12-22T10:28:39.406Z,29.93
2018-12-22T10:31:05.748Z,30.10
2018-12-22T10:33:32.100Z,29.98
2018-12-22T10:35:58.465Z,29.96
2018-12-22T10:38:24.806Z,30.25
2018-12-22T10:40:51.243Z,30.37
2018-12-22T10:43:17.610Z,29.72
2018-12-22T10:45:43.936Z,29.83
2018-12-22T10:48:10.328Z,29.73
2018-12-22T10:50:36.657Z,29.73
2018-12-22T10:53:03.036Z,29.86
2018-12-22T10:55:29.318Z,29.87
2018-12-22T10:57:55.695Z,30.04
2018-12-22T11:00:22.081Z,30.31
2018-12-22T11:02:48.473Z,30.44
2018-12-22T11:05:14.779Z,31.54
2018-12-22T11:07:41.191Z,31.72
2018-12-22T11:10:07.550Z,32.56
2018-12-22T11:12:33.955Z,31.44
2018-12-22T11:15:00.220Z,31.58
2018-12-22T11:17:26.620Z,31.37
2018-12-22T11:19:53.227Z,31.22
2018-12-22T11:22:19.518Z,30.83
2018-12-22T11:24:45.943Z,30.92
2018-12-22T11:27:12.250Z,31.41
2018-12-22T11:29:38.647Z,31.04
2018-12-22T11:32:05.045Z,31.23
2018-12-22T11:34:31.365Z,31.08
2018-12-22T11:36:57.705Z,31.20
2018-12-22T11:39:24.096Z,30.76
2018-12-22T11:41:50.446Z,30.98
2018-12-22T11:44:16.794Z,31.47
2018-12-22T11:46:43.143Z,31.63
2018-12-22T11:49:09.494Z,31.47
2018-12-22T11:51:35.825Z,31.16
2018-12-22T11:54:02.311Z,31.12
2018-12-22T11:56:28.645Z,30.94
2018-12-22T11:58:54.973Z,30.83
2018-12-22T12:01:21.308Z,30.78
2018-12-22T12:03:47.647Z,30.74
2018-12-22T12:06:13.976Z,30.61
2018-12-22T12:08:40.363Z,30.85
2018-12-22T12:11:06.693Z,31.07
2018-12-22T12:13:33.163Z,30.77
2018-12-22T12:15:59.491Z,30.74
2018-12-22T12:18:25.833Z,30.66
2018-12-22T12:20:52.192Z,31.42
2018-12-22T12:23:18.636Z,31.51
2018-12-22T12:25:44.983Z,31.54
2018-12-22T12:28:11.324Z,31.55
2018-12-22T12:30:37.656Z,31.72
2018-12-22T12:33:04.114Z,31.63
2018-12-22T12:35:30.468Z,32.07
2018-12-22T12:37:56.809Z,32.11
2018-12-22T12:40:23.154Z,32.44
2018-12-22T12:42:49.486Z,32.74
2018-12-22T12:45:15.825Z,32.96
2018-12-22T12:47:42.171Z,32.66
2018-12-22T12:50:08.514Z,33.08
2018-12-22T12:52:34.963Z,33.20
2018-12-22T12:55:01.395Z,33.34
2018-12-22T12:57:27.753Z,33.16
2018-12-22T12:59:54.135Z,33.17
2018-12-22T13:02:20.488Z,33.11
2018-12-22T13:04:46.876Z,32.96
2018-12-22T13:07:15.185Z,32.87
2018-12-22T13:09:39.617Z,32.71
2018-12-22T13:12:05.974Z,32.69
2018-12-22T13:14:32.315Z,32.62
2018-12-22T13:16:58.710Z,32.36
2018-12-22T13:19:25.054Z,32.53
2018-12-22T13:21:51.548Z,32.21
2018-12-22T13:24:18.561Z,32.68
2018-12-22T13:26:44.292Z,33.20
2018-12-22T13:29:10.696Z,33.62
2018-12-22T13:31:37.044Z,34.30
2018-12-22T13:34:03.430Z,34.99
2018-12-22T13:36:34.424Z,35.52
2018-12-22T13:38:56.165Z,35.72
2018-12-22T13:41:22.538Z,35.94
2018-12-22T13:43:48.880Z,36.06
2018-12-22T13:46:15.344Z,36.42
2018-12-22T13:48:41.876Z,36.82
2018-12-22T13:51:08.399Z,36.46
2018-12-22T13:53:34.573Z,36.53
2018-12-22T13:56:00.915Z,36.32
2018-12-22T13:58:27.329Z,36.90
2018-12-22T14:00:53.672Z,37.01
2018-12-22T14:03:20.065Z,36.92
2018-12-22T14:05:46.430Z,38.09
2018-12-22T14:08:12.818Z,38.90
2018-12-22T14:10:39.170Z,38.74
2018-12-22T14:13:05.509Z,38.47
2018-12-22T14:15:31.887Z,39.04
2018-12-22T14:17:58.373Z,40.09
2018-12-22T14:20:24.779Z,39.77
2018-12-22T14:22:51.240Z,40.05
2018-12-22T14:25:17.607Z,39.89
2018-12-22T14:27:44.003Z,40.10
2018-12-22T14:30:10.335Z,39.83
2018-12-22T14:32:36.742Z,40.06
2018-12-22T14:35:03.066Z,40.97
2018-12-22T14:37:29.450Z,41.66
2018-12-22T14:39:55.821Z,40.99
2018-12-22T14:42:22.180Z,41.62
2018-12-22T14:44:48.519Z,41.79
2018-12-22T14:47:14.947Z,41.30
2018-12-22T14:49:41.284Z,41.31
2018-12-22T14:52:07.643Z,43.31
2018-12-22T14:54:34.040Z,42.38
2018-12-22T14:57:00.386Z,41.75
2018-12-22T14:59:26.765Z,42.49
2018-12-22T15:01:53.124Z,42.31
2018-12-22T15:04:19.531Z,41.16
2018-12-22T15:06:45.853Z,40.95
2018-12-22T15:09:13.430Z,40.78
2018-12-22T15:11:38.574Z,41.54
2018-12-22T15:14:04.933Z,41.80
2018-12-22T15:16:31.450Z,41.81
2018-12-22T15:18:57.788Z,41.80
2018-12-22T15:21:24.137Z,41.96
2018-12-22T15:23:50.526Z,42.26
2018-12-22T15:26:16.905Z,42.48
2018-12-22T15:28:47.083Z,42.85
2018-12-22T15:31:09.629Z,42.76
2018-12-22T15:33:36.029Z,42.57
2018-12-22T15:36:02.375Z,42.16
2018-12-22T15:38:28.839Z,42.54
2018-12-22T15:40:55.141Z,44.92
2018-12-22T15:43:21.473Z,46.81
2018-12-22T15:45:47.877Z,45.66
2018-12-22T15:48:14.218Z,45.32
2018-12-22T15:50:40.616Z,45.61
2018-12-22T15:53:06.952Z,45.64
2018-12-22T15:55:33.304Z,44.07
2018-12-22T15:57:59.713Z,43.13
2018-12-22T16:00:26.200Z,42.71
2018-12-22T16:02:53.390Z,42.26
2018-12-22T16:05:18.948Z,42.69
2018-12-22T16:07:45.366Z,46.58
2018-12-22T16:10:11.708Z,46.22
2018-12-22T16:12:38.101Z,48.99
2018-12-22T16:15:04.477Z,49.56
2018-12-22T16:17:30.832Z,49.76
2018-12-22T16:19:57.211Z,47.90
2018-12-22T16:22:23.529Z,46.80
2018-12-22T16:24:49.924Z,46.50
2018-12-22T16:27:16.358Z,46.64
2018-12-22T16:29:42.699Z,47.20
2018-12-22T16:32:09.038Z,47.41
2018-12-22T16:34:35.413Z,47.70
2018-12-22T16:37:01.753Z,47.95
2018-12-22T16:39:28.129Z,48.24
2018-12-22T16:41:54.512Z,48.73
2018-12-22T16:44:20.899Z,48.49
2018-12-22T16:46:47.299Z,48.43
2018-12-22T16:49:13.637Z,48.49
2018-12-22T16:51:39.968Z,48.52
2018-12-22T16:54:06.321Z,48.62
2018-12-22T16:56:32.739Z,48.67
2018-12-22T16:58:59.084Z,48.42
2018-12-22T17:01:25.501Z,48.26
2018-12-22T17:03:51.835Z,48.28
2018-12-22T17:06:18.255Z,48.12
2018-12-22T17:08:44.655Z,47.80
2018-12-22T17:11:11.089Z,47.44
2018-12-22T17:13:37.383Z,47.40
2018-12-22T17:16:03.732Z,47.27
2018-12-22T17:18:30.106Z,46.91
2018-12-22T17:20:56.433Z,47.03
2018-12-22T17:23:22.770Z,47.08
2018-12-22T17:25:49.111Z,46.94
2018-12-22T17:28:15.455Z,46.80
2018-12-22T17:30:41.870Z,46.44
2018-12-22T17:33:08.253Z,46.38
2018-12-22T17:35:34.583Z,46.20
2018-12-22T17:38:00.963Z,46.44
2018-12-22T17:40:27.344Z,46.35
2018-12-22T17:42:53.681Z,46.26
2018-12-22T17:45:20.138Z,46.25
2018-12-22T17:47:46.541Z,46.11
2018-12-22T17:50:12.870Z,46.02
2018-12-22T17:52:39.207Z,45.75
2018-12-22T17:55:05.588Z,45.85
2018-12-22T17:57:31.997Z,45.72
2018-12-22T17:59:58.345Z,45.35
2018-12-22T18:02:24.671Z,45.17
2018-12-22T18:04:51.052Z,44.96
2018-12-22T18:07:17.386Z,44.80
2018-12-22T18:09:43.739Z,44.56
2018-12-22T18:12:10.092Z,44.63
2018-12-22T18:14:36.495Z,44.49
2018-12-22T18:17:02.885Z,44.29
2018-12-22T18:19:29.329Z,44.19
2018-12-22T18:21:55.591Z,44.16
2018-12-22T18:24:21.972Z,43.97
2018-12-22T18:26:48.311Z,43.85
2018-12-22T18:29:14.689Z,43.76
2018-12-22T18:31:41.021Z,43.81
2018-12-22T18:34:07.415Z,43.75
2018-12-22T18:36:33.753Z,43.65
2018-12-22T18:39:00.198Z,43.56
2018-12-22T18:41:26.555Z,43.47
2018-12-22T18:43:52.911Z,43.37
2018-12-22T18:46:19.262Z,43.23
2018-12-22T18:48:45.594Z,43.23
2018-12-22T18:51:11.933Z,43.09
2018-12-22T18:53:38.357Z,42.98
2018-12-22T18:56:04.695Z,42.83
2018-12-22T18:58:31.088Z,42.67
2018-12-22T19:00:57.418Z,42.55
2018-12-22T19:03:23.848Z,42.35
2018-12-22T19:05:50.203Z,42.25
2018-12-22T19:08:16.543Z,42.15
2018-12-22T19:10:42.883Z,42.04
2018-12-22T19:13:09.273Z,41.89
2018-12-22T19:15:35.649Z,41.76
2018-12-22T19:20:25.740Z,41.62
2018-12-22T19:22:52.062Z,41.52
2018-12-22T19:25:18.441Z,41.45
2018-12-22T19:27:44.873Z,41.44
2018-12-22T19:30:11.191Z,41.36
2018-12-22T19:32:37.581Z,41.34
2018-12-22T19:35:03.917Z,41.31
2018-12-22T19:37:30.252Z,41.32
2018-12-22T19:39:56.587Z,41.26
2018-12-22T19:42:23.030Z,41.10
2018-12-22T19:44:49.367Z,40.81
2018-12-22T19:47:15.761Z,40.73
2018-12-22T19:49:42.146Z,40.50
2018-12-22T19:52:08.443Z,40.55
2018-12-22T19:54:34.784Z,40.37
2018-12-22T19:57:01.119Z,40.31
2018-12-22T19:59:27.454Z,40.23
2018-12-22T20:01:53.844Z,40.27
2018-12-22T20:04:20.183Z,40.26
2018-12-22T20:06:46.543Z,40.04
2018-12-22T20:09:12.880Z,40.06
2018-12-22T20:11:39.214Z,39.98
2018-12-22T20:14:05.592Z,39.82
2018-12-22T20:16:31.924Z,39.79
2018-12-22T20:18:58.426Z,39.68
2018-12-22T20:21:24.764Z,39.64
2018-12-22T20:23:51.163Z,39.60
2018-12-22T20:26:17.553Z,39.75
2018-12-22T20:28:43.900Z,39.79
2018-12-22T20:31:10.250Z,39.91
2018-12-22T20:33:36.650Z,39.97
2018-12-22T20:36:03.041Z,40.21
2018-12-22T20:38:29.415Z,40.49
2018-12-22T20:40:55.774Z,40.62
2018-12-22T20:43:22.150Z,40.70
2018-12-22T20:45:48.510Z,40.82
2018-12-22T20:48:14.847Z,40.75
2018-12-22T20:50:41.275Z,40.70
2018-12-22T20:53:07.646Z,40.56
2018-12-22T20:55:33.998Z,40.75
2018-12-22T20:58:00.368Z,40.83
2018-12-22T21:00:26.745Z,40.71
2018-12-22T21:02:53.160Z,40.78
2018-12-22T21:05:19.488Z,40.70
2018-12-22T21:07:45.817Z,40.63
2018-12-22T21:10:12.163Z,40.55
2018-12-22T21:12:38.555Z,40.55
2018-12-22T21:15:04.928Z,40.62
2018-12-22T21:17:31.291Z,40.69
2018-12-22T21:19:57.666Z,40.60
2018-12-22T21:22:24.054Z,40.57
2018-12-22T21:24:50.388Z,40.50
2018-12-22T21:27:16.775Z,40.54
2018-12-22T21:29:43.126Z,40.49
2018-12-22T21:32:09.530Z,40.56
2018-12-22T21:34:35.899Z,40.61
2018-12-22T21:37:02.234Z,40.56
2018-12-22T21:39:28.624Z,40.46
2018-12-22T21:41:54.981Z,40.45
2018-12-22T21:44:21.466Z,40.30
2018-12-22T21:46:47.819Z,40.23
2018-12-22T21:49:14.159Z,40.23
2018-12-22T21:51:40.567Z,40.29
2018-12-22T21:54:06.899Z,40.28
2018-12-22T21:56:33.284Z,40.29
2018-12-22T21:58:59.656Z,40.23
2018-12-22T22:01:26.032Z,40.05
2018-12-22T22:03:52.421Z,40.05
2018-12-22T22:06:18.755Z,39.96
2018-12-22T22:08:45.092Z,39.85
2018-12-22T22:11:11.419Z,39.94
2018-12-22T22:13:37.846Z,39.85
2018-12-22T22:16:04.165Z,39.87
2018-12-22T22:18:30.464Z,39.87
2018-12-22T22:20:56.776Z,39.80
2018-12-22T22:23:23.175Z,39.74
2018-12-22T22:25:49.604Z,39.79
2018-12-22T22:28:15.992Z,39.73
2018-12-22T22:30:43.063Z,39.59
2018-12-22T22:33:09.704Z,39.58
2018-12-22T22:35:36.242Z,39.60
2018-12-22T22:38:02.951Z,39.54
2018-12-22T22:40:29.264Z,39.44
2018-12-22T22:42:55.639Z,39.41
2018-12-22T22:45:21.967Z,39.43
2018-12-22T22:47:48.321Z,39.48
2018-12-22T22:50:14.652Z,39.49
2018-12-22T22:52:40.987Z,39.54
2018-12-22T22:55:07.332Z,39.53
2018-12-22T22:57:33.784Z,39.49
2018-12-22T23:00:00.175Z,39.38
2018-12-22T23:02:26.408Z,39.38
2018-12-22T23:04:54.567Z,39.36
2018-12-22T23:07:19.120Z,39.31
2018-12-22T23:09:45.510Z,39.45
2018-12-22T23:12:11.856Z,39.42
2018-12-22T23:14:38.228Z,39.37
2018-12-22T23:17:04.558Z,39.28
2018-12-22T23:19:30.936Z,39.18
2018-12-22T23:21:57.268Z,39.19
2018-12-22T23:24:23.684Z,39.21
2018-12-22T23:26:50.032Z,39.20
2018-12-22T23:29:16.387Z,39.14
2018-12-22T23:31:42.730Z,39.19
2018-12-22T23:34:09.115Z,39.23
2018-12-22T23:36:35.457Z,39.22
2018-12-22T23:39:01.856Z,39.20
2018-12-22T23:41:28.187Z,39.06
2018-12-22T23:43:54.516Z,38.95
2018-12-22T23:46:20.853Z,38.97
2018-12-22T23:48:47.233Z,38.98
2018-12-22T23:51:13.566Z,38.96
2018-12-22T23:53:39.965Z,38.91
2018-12-22T23:56:06.252Z,38.87
2018-12-22T23:58:32.651Z,38.90
